Washingtonville, Ohio
Current Conditions -  °F | °C
As of 8:51 AM on Thursday 27 Nov 2014 (Local Time) from KYNG Reporting Station
Light Snow Light Snow  
Wind Chill: 26°   Ceiling: 500
Heat Index: 32°   Visibility: 5mi
Dew Point: 30°   Wind: 6mph
Humidity: 92%   Direction: 280°W
Pressure: 30.04"   Gusts: NA
Location:  40.9°N, 80.76°W
Report Text: KYNG 271351Z 28005KT 5SM -SN BR BKN005 BKN025 OVC050 00/M01 A3004 RMK AO2 SLP185 P0000 T00001011
Loading
Personal Weather Stations






























Interactive Weather Map New forecast layout! Learn more

10-Day Weather Forecast

Advertisements
Track Severe Weather on mobile